Time;durP1;ratioP1;P1;durP2;ratioP2;P2;SDS_P1;SDS_P2;PMS_P1;PMS_P2;Temp;Humidity;BMP_temperature;BMP_pressure;BME280_temperature;BME280_humidity;BME280_pressure;Samples;Min_cycle;Max_cycle;Signal;HPM_P1;HPM_P2
2023/10/23 00:00:18;;;;;;;8.10;3.60;;;11.20;71.70;;;;;;5047928;28;20108;-83
2023/10/23 00:02:43;;;;;;;6.25;2.25;;;11.20;71.70;;;;;;5066431;28;20391;-84
2023/10/23 00:05:09;;;;;;;6.97;2.95;;;11.30;72.00;;;;;;5058398;28;20017;-83
2023/10/23 00:07:35;;;;;;;7.45;2.35;;;11.20;71.80;;;;;;5044851;28;20033;-83
2023/10/23 00:10:01;;;;;;;6.15;2.25;;;11.30;72.00;;;;;;5062378;28;20029;-83
2023/10/23 00:12:27;;;;;;;6.15;2.08;;;11.30;72.00;;;;;;5058191;28;20033;-82
2023/10/23 00:14:54;;;;;;;6.25;2.42;;;11.30;72.10;;;;;;5062692;28;20044;-83
2023/10/23 00:17:20;;;;;;;5.05;2.15;;;11.30;72.10;;;;;;5048726;28;20029;-84
2023/10/23 00:19:47;;;;;;;4.38;2.13;;;11.40;72.30;;;;;;5063257;28;20060;-82
2023/10/23 00:22:13;;;;;;;4.38;1.88;;;11.40;72.30;;;;;;5054571;28;20268;-84
2023/10/23 00:24:43;;;;;;;5.40;2.13;;;11.40;72.30;;;;;;5064980;28;20033;-83
2023/10/23 00:27:10;;;;;;;6.85;2.80;;;11.40;72.30;;;;;;5043836;28;20039;-83
2023/10/23 00:29:37;;;;;;;4.22;1.67;;;11.40;72.30;;;;;;5047281;28;20024;-84
2023/10/23 00:32:04;;;;;;;3.70;2.00;;;11.50;72.60;;;;;;5051822;28;20577;-83
2023/10/23 00:34:31;;;;;;;2.20;1.40;;;11.50;72.60;;;;;;5042750;28;20354;-83
2023/10/23 00:37:01;;;;;;;7.25;2.38;;;11.50;72.60;;;;;;5064611;28;20033;-83
2023/10/23 00:39:28;;;;;;;6.72;2.03;;;11.50;72.60;;;;;;5045381;28;20548;-86
2023/10/23 00:41:53;;;;;;;5.72;1.77;;;11.50;72.60;;;;;;5058578;28;20033;-87
2023/10/23 00:44:19;;;;;;;6.55;2.00;;;11.50;72.60;;;;;;5063926;28;20683;-87
2023/10/23 00:46:46;;;;;;;5.50;2.17;;;11.50;72.60;;;;;;5043105;28;20036;-88
2023/10/23 00:49:12;;;;;;;3.53;1.60;;;11.60;72.80;;;;;;5050863;28;20032;-87
2023/10/23 00:51:38;;;;;;;4.30;1.60;;;11.60;72.90;;;;;;5046332;28;20064;-87
2023/10/23 00:54:06;;;;;;;7.40;1.70;;;11.60;72.90;;;;;;5061797;28;20287;-85
2023/10/23 00:56:34;;;;;;;4.95;1.50;;;11.60;72.90;;;;;;5060803;28;20036;-85
2023/10/23 00:59:03;;;;;;;6.63;1.60;;;11.60;73.00;;;;;;5058596;28;20447;-85
2023/10/23 01:01:32;;;;;;;4.93;1.60;;;11.60;72.90;;;;;;5040906;28;20040;-86
2023/10/23 01:04:00;;;;;;;5.75;1.50;;;11.60;73.00;;;;;;5045439;28;20028;-85
2023/10/23 01:06:27;;;;;;;3.92;2.50;;;11.60;73.00;;;;;;5061782;28;20032;-85
2023/10/23 01:08:54;;;;;;;6.30;1.75;;;11.70;73.70;;;;;;5078337;28;20332;-84
2023/10/23 01:11:24;;;;;;;3.95;2.05;;;11.70;73.20;;;;;;5043533;28;20159;-85
2023/10/23 01:13:52;;;;;;;5.53;1.58;;;11.70;73.20;;;;;;5062340;28;20044;-85
2023/10/23 01:16:21;;;;;;;5.93;1.80;;;11.70;73.30;;;;;;5075100;28;20421;-84
2023/10/23 01:18:47;;;;;;;10.13;2.60;;;11.70;73.30;;;;;;5047628;28;20037;-84
2023/10/23 01:21:14;;;;;;;4.28;1.33;;;11.70;73.30;;;;;;5058988;28;20043;-86
2023/10/23 01:23:43;;;;;;;4.22;1.50;;;11.70;73.30;;;;;;5044358;28;20032;-85
2023/10/23 01:26:10;;;;;;;3.55;1.40;;;11.70;73.30;;;;;;5058919;28;20070;-86
2023/10/23 01:28:46;;;;;;;5.03;1.30;;;11.80;73.50;;;;;;5064722;28;20025;-86
2023/10/23 01:31:12;;;;;;;4.28;1.48;;;11.70;73.30;;;;;;5052199;28;20028;-85
2023/10/23 01:33:42;;;;;;;4.85;1.55;;;11.80;73.60;;;;;;5044381;28;20045;-86
2023/10/23 01:36:09;;;;;;;4.03;1.42;;;11.80;73.60;;;;;;5061702;28;20032;-86
2023/10/23 01:38:36;;;;;;;4.63;1.73;;;11.80;73.50;;;;;;5048093;28;20140;-83
2023/10/23 01:41:03;;;;;;;4.47;1.83;;;11.80;73.60;;;;;;5058655;28;20406;-86
2023/10/23 01:43:29;;;;;;;4.97;1.75;;;11.80;73.60;;;;;;5044917;28;20044;-85
2023/10/23 01:45:55;;;;;;;6.18;1.58;;;11.80;73.60;;;;;;5060780;28;20059;-85
2023/10/23 01:48:21;;;;;;;3.13;1.52;;;11.80;73.60;;;;;;5048367;28;20114;-85
2023/10/23 01:50:47;;;;;;;6.95;1.83;;;11.80;73.60;;;;;;5045429;28;20067;-86
2023/10/23 01:53:14;;;;;;;3.65;1.38;;;11.80;73.60;;;;;;5061315;28;20614;-86
2023/10/23 01:55:40;;;;;;;5.63;1.50;;;11.80;73.60;;;;;;5060849;28;20058;-84
2023/10/23 01:58:06;;;;;;;3.22;1.42;;;11.80;73.60;;;;;;5062386;28;20066;-86
2023/10/23 02:00:32;;;;;;;4.35;1.52;;;11.90;73.80;;;;;;5061978;28;20032;-85
2023/10/23 02:02:59;;;;;;;5.72;2.65;;;11.80;73.60;;;;;;5071670;28;20036;-86
2023/10/23 02:05:25;;;;;;;4.65;2.17;;;11.90;73.80;;;;;;5060468;28;20120;-86
2023/10/23 02:07:51;;;;;;;2.25;1.33;;;11.90;73.80;;;;;;5044178;28;20033;-84
2023/10/23 02:10:17;;;;;;;5.93;1.50;;;11.90;73.80;;;;;;5043985;28;20380;-86
2023/10/23 02:12:43;;;;;;;4.38;1.77;;;11.90;73.80;;;;;;5044335;28;20032;-86
2023/10/23 02:15:13;;;;;;;4.03;1.67;;;11.90;73.80;;;;;;5061591;28;20025;-86
2023/10/23 02:17:39;;;;;;;2.42;1.35;;;11.90;74.30;;;;;;5061987;28;20054;-86
2023/10/23 02:20:06;;;;;;;2.70;1.00;;;11.80;73.60;;;;;;5053915;28;20494;-86
2023/10/23 02:22:33;;;;;;;4.60;1.13;;;11.90;73.80;;;;;;5041523;28;20044;-86
2023/10/23 02:24:58;;;;;;;3.78;1.30;;;11.80;73.60;;;;;;5060670;28;20067;-86
2023/10/23 02:27:25;;;;;;;2.13;1.20;;;11.80;73.70;;;;;;5059933;28;20045;-86
2023/10/23 02:29:51;;;;;;;5.35;1.40;;;11.80;73.70;;;;;;5061646;28;20025;-86
2023/10/23 02:32:17;;;;;;;2.83;1.13;;;11.80;73.70;;;;;;5053995;28;20024;-85
2023/10/23 02:34:47;;;;;;;5.70;1.42;;;11.80;73.70;;;;;;5058171;28;20033;-85
2023/10/23 02:37:13;;;;;;;7.85;1.60;;;11.80;73.60;;;;;;5060848;28;20491;-83
2023/10/23 02:39:39;;;;;;;2.55;1.00;;;11.80;73.70;;;;;;5060616;28;20048;-85
2023/10/23 02:42:05;;;;;;;2.15;0.80;;;11.80;73.70;;;;;;5056533;28;20502;-85
2023/10/23 02:44:31;;;;;;;3.65;2.28;;;11.80;73.70;;;;;;5061657;28;20483;-85
2023/10/23 02:46:57;;;;;;;2.25;0.98;;;11.80;73.70;;;;;;5060856;28;20033;-86
2023/10/23 02:49:24;;;;;;;3.22;1.00;;;11.70;73.60;;;;;;5045198;28;20279;-85
2023/10/23 02:51:50;;;;;;;2.53;1.05;;;11.70;73.60;;;;;;5055659;28;20438;-84
2023/10/23 02:54:16;;;;;;;5.88;1.23;;;11.70;73.60;;;;;;5059913;28;20166;-84
2023/10/23 02:56:42;;;;;;;5.72;1.40;;;11.70;73.60;;;;;;5073653;28;20123;-84
2023/10/23 02:59:08;;;;;;;4.30;1.35;;;11.70;73.60;;;;;;5057381;28;20376;-84
2023/10/23 03:01:34;;;;;;;3.92;1.25;;;11.70;73.60;;;;;;5039176;28;20036;-85
2023/10/23 03:04:01;;;;;;;2.35;1.00;;;11.70;73.70;;;;;;5056950;28;20028;-84
2023/10/23 03:06:27;;;;;;;4.30;1.48;;;11.70;73.70;;;;;;5062371;28;20554;-84
2023/10/23 03:08:53;;;;;;;2.55;1.10;;;11.70;73.70;;;;;;5076993;28;20024;-86
2023/10/23 03:11:18;;;;;;;2.85;1.00;;;11.70;73.70;;;;;;5060841;28;20021;-85
2023/10/23 03:13:44;;;;;;;3.13;1.00;;;11.70;73.70;;;;;;5061061;28;20232;-87
2023/10/23 03:16:14;;;;;;;3.90;1.00;;;11.70;73.70;;;;;;5045233;28;20036;-86
2023/10/23 03:18:40;;;;;;;2.17;1.00;;;11.80;73.90;;;;;;5077515;28;20036;-86
2023/10/23 03:21:06;;;;;;;2.17;1.30;;;11.80;73.90;;;;;;5058027;28;20515;-85
2023/10/23 03:23:32;;;;;;;2.88;1.10;;;11.80;73.90;;;;;;5043974;28;20028;-86
2023/10/23 03:26:00;;;;;;;2.97;1.45;;;11.80;73.90;;;;;;5057589;28;20032;-87
2023/10/23 03:28:26;;;;;;;5.65;1.10;;;11.80;73.90;;;;;;5060604;28;20075;-86
2023/10/23 03:30:52;;;;;;;3.45;1.10;;;11.80;74.40;;;;;;5058521;28;20044;-85
2023/10/23 03:33:18;;;;;;;4.90;0.85;;;11.80;73.90;;;;;;5044587;28;20043;-86
2023/10/23 03:35:44;;;;;;;1.55;0.90;;;11.80;73.90;;;;;;5042097;28;20024;-86
2023/10/23 03:38:13;;;;;;;4.63;1.80;;;11.90;74.10;;;;;;5055961;28;20055;-86
2023/10/23 03:40:39;;;;;;;4.13;1.10;;;11.80;73.90;;;;;;5040347;28;20075;-87
2023/10/23 03:43:05;;;;;;;4.18;1.30;;;11.90;74.00;;;;;;5077654;28;20021;-88
2023/10/23 03:45:35;;;;;;;1.60;0.95;;;11.90;74.10;;;;;;5056884;28;20020;-88
2023/10/23 03:48:01;;;;;;;5.95;1.77;;;11.90;74.10;;;;;;5062105;28;20032;-85
2023/10/23 03:50:27;;;;;;;4.60;1.35;;;11.90;74.60;;;;;;5059813;28;20251;-82
2023/10/23 03:52:53;;;;;;;4.53;1.10;;;11.90;74.10;;;;;;5042892;28;20483;-83
2023/10/23 03:55:19;;;;;;;5.53;2.28;;;11.90;74.10;;;;;;5060267;28;20472;-83
2023/10/23 03:57:47;;;;;;;2.53;1.00;;;11.90;74.10;;;;;;5059475;28;20032;-83
2023/10/23 04:00:14;;;;;;;3.03;1.35;;;11.90;74.10;;;;;;5058525;28;20274;-83
2023/10/23 04:02:40;;;;;;;3.85;1.65;;;11.90;74.20;;;;;;5055889;28;20499;-83
2023/10/23 04:05:06;;;;;;;4.18;1.17;;;11.90;74.20;;;;;;5042533;28;20507;-84
2023/10/23 04:07:32;;;;;;;17.95;1.90;;;11.90;74.20;;;;;;5059736;28;20040;-83
2023/10/23 04:09:58;;;;;;;3.45;1.27;;;11.90;74.70;;;;;;5063165;28;20043;-83
2023/10/23 04:12:24;;;;;;;3.83;1.45;;;11.90;74.10;;;;;;5060535;28;20036;-83
2023/10/23 04:14:50;;;;;;;5.43;2.17;;;11.90;74.10;;;;;;5057334;28;20036;-83
2023/10/23 04:17:16;;;;;;;5.20;1.67;;;12.00;74.30;;;;;;5063531;28;20028;-84
2023/10/23 04:19:46;;;;;;;7.95;2.03;;;12.00;74.30;;;;;;5061259;28;20028;-83
2023/10/23 04:22:12;;;;;;;5.68;1.55;;;12.00;74.50;;;;;;5064956;28;20383;-83
2023/10/23 04:24:38;;;;;;;5.25;2.05;;;12.00;74.30;;;;;;5065240;28;20115;-83
2023/10/23 04:27:04;;;;;;;6.35;1.98;;;12.00;74.30;;;;;;5063507;28;20123;-82
2023/10/23 04:29:30;;;;;;;5.03;1.30;;;12.00;74.30;;;;;;5068316;28;20036;-82
2023/10/23 04:31:56;;;;;;;3.38;1.45;;;12.00;74.30;;;;;;5078312;28;20054;-82
2023/10/23 04:34:22;;;;;;;5.53;1.52;;;12.00;74.30;;;;;;5064080;28;20253;-82
2023/10/23 04:36:48;;;;;;;5.10;1.67;;;12.00;74.30;;;;;;5062366;28;20029;-83
2023/10/23 04:39:13;;;;;;;4.80;1.70;;;12.00;74.30;;;;;;5068661;28;20122;-82
2023/10/23 04:41:39;;;;;;;5.72;1.85;;;12.00;74.30;;;;;;5056156;28;20139;-83
2023/10/23 04:44:05;;;;;;;4.35;1.60;;;12.00;74.30;;;;;;5057174;28;20027;-82
2023/10/23 04:46:32;;;;;;;4.32;1.60;;;12.00;74.20;;;;;;5063636;28;20094;-83
2023/10/23 04:48:58;;;;;;;5.07;1.60;;;12.00;74.20;;;;;;5061365;28;20483;-83
2023/10/23 04:51:24;;;;;;;4.65;1.75;;;12.00;74.20;;;;;;5061564;28;20040;-84
2023/10/23 04:53:50;;;;;;;2.80;1.70;;;12.00;74.20;;;;;;5061928;28;20236;-83
2023/10/23 04:56:16;;;;;;;5.88;1.88;;;12.00;74.30;;;;;;5060979;28;20475;-84
2023/10/23 04:58:43;;;;;;;3.13;1.40;;;12.00;74.30;;;;;;5059276;28;20059;-83
2023/10/23 05:01:18;;;;;;;9.00;2.67;;;12.00;74.30;;;;;;5063400;28;20475;-84
2023/10/23 05:03:44;;;;;;;3.25;1.60;;;12.00;74.30;;;;;;5076502;28;20040;-84
2023/10/23 05:06:10;;;;;;;3.03;1.65;;;12.00;74.30;;;;;;5062664;28;20028;-85
2023/10/23 05:08:36;;;;;;;4.38;1.48;;;12.00;74.30;;;;;;5060703;28;20039;-87
2023/10/23 05:11:10;;;;;;;4.80;1.60;;;12.00;74.30;;;;;;5061740;28;20020;-86
2023/10/23 05:13:36;;;;;;;6.80;2.10;;;12.00;74.30;;;;;;5058629;28;20032;-82
2023/10/23 05:16:06;;;;;;;7.22;1.95;;;12.00;74.20;;;;;;5038888;28;20028;-84
2023/10/23 05:18:34;;;;;;;4.07;1.63;;;12.00;74.20;;;;;;5068389;28;20132;-82
2023/10/23 05:21:10;;;;;;;6.38;1.73;;;12.00;74.20;;;;;;5061642;28;20751;-80
2023/10/23 05:23:40;;;;;;;4.95;2.00;;;12.00;74.30;;;;;;5057261;28;20511;-86
2023/10/23 05:26:08;;;;;;;5.78;1.65;;;12.00;74.20;;;;;;5054037;28;20024;-81
2023/10/23 05:28:34;;;;;;;4.85;1.70;;;12.00;74.20;;;;;;5052539;28;20065;-83
2023/10/23 05:30:59;;;;;;;7.68;2.45;;;12.00;74.20;;;;;;5042226;28;20055;-83
2023/10/23 05:33:25;;;;;;;5.78;1.70;;;11.90;74.00;;;;;;5057056;28;20290;-82
2023/10/23 05:36:09;;;;;;;4.85;2.00;;;11.90;74.10;;;;;;5039831;28;20472;-82
2023/10/23 05:38:36;;;;;;;3.17;1.90;;;11.90;74.10;;;;;;5057259;28;20048;-82
2023/10/23 05:41:03;;;;;;;7.28;1.85;;;11.90;74.10;;;;;;5055020;28;20377;-82
2023/10/23 05:43:29;;;;;;;6.75;2.08;;;11.90;74.10;;;;;;5055795;28;20028;-83
2023/10/23 05:45:55;;;;;;;6.43;2.00;;;11.90;74.10;;;;;;5053903;28;20636;-81
2023/10/23 05:48:22;;;;;;;5.25;1.50;;;11.90;74.10;;;;;;5055229;28;20075;-85
2023/10/23 05:51:03;;;;;;;3.17;1.73;;;11.90;74.20;;;;;;5055863;28;20037;-84
2023/10/23 05:53:29;;;;;;;5.45;1.80;;;11.90;74.40;;;;;;5058854;28;20089;-85
2023/10/23 05:56:05;;;;;;;7.30;2.30;;;11.90;74.40;;;;;;5056803;28;20412;-84
2023/10/23 05:58:32;;;;;;;5.57;1.88;;;11.90;74.60;;;;;;5058771;28;20494;-83
2023/10/23 06:01:11;;;;;;;6.10;2.03;;;12.00;74.80;;;;;;5038944;28;20071;-82
2023/10/23 06:03:38;;;;;;;7.72;3.38;;;12.00;75.00;;;;;;5059321;28;20513;-78
2023/10/23 06:06:05;;;;;;;9.75;2.38;;;12.00;74.90;;;;;;5059440;28;20099;-82
2023/10/23 06:08:32;;;;;;;7.07;2.40;;;12.10;75.40;;;;;;5055129;28;20429;-81
2023/10/23 06:10:59;;;;;;;11.23;2.60;;;12.20;75.90;;;;;;5071882;28;20032;-83
2023/10/23 06:13:25;;;;;;;10.45;3.97;;;12.20;76.00;;;;;;5071692;28;20036;-84
2023/10/23 06:15:52;;;;;;;7.20;2.45;;;12.30;76.30;;;;;;5061291;28;20064;-83
2023/10/23 06:18:19;;;;;;;9.30;2.33;;;12.30;76.30;;;;;;5057503;28;20071;-84
2023/10/23 06:20:45;;;;;;;8.15;2.40;;;12.40;76.50;;;;;;5058537;28;20040;-81
2023/10/23 06:23:12;;;;;;;15.45;3.40;;;12.30;76.30;;;;;;5048388;28;20029;-82
2023/10/23 06:25:39;;;;;;;6.68;2.85;;;12.40;76.50;;;;;;5060770;28;20082;-84
2023/10/23 06:28:07;;;;;;;8.25;1.85;;;12.40;76.60;;;;;;5060349;28;20176;-84
2023/10/23 06:30:35;;;;;;;10.02;2.15;;;12.30;76.30;;;;;;5047191;28;20555;-80
2023/10/23 06:33:01;;;;;;;7.30;2.00;;;12.30;76.40;;;;;;5055310;28;20048;-82
2023/10/23 06:35:27;;;;;;;5.07;2.08;;;12.30;76.40;;;;;;5051688;28;20064;-81
2023/10/23 06:37:53;;;;;;;7.47;1.75;;;12.40;76.70;;;;;;5054875;28;20456;-82
2023/10/23 06:40:18;;;;;;;5.70;2.58;;;12.40;76.80;;;;;;5034586;28;20053;-83
2023/10/23 06:42:44;;;;;;;5.13;1.90;;;12.40;76.80;;;;;;5062319;28;20106;-82
2023/10/23 06:45:10;;;;;;;7.65;2.97;;;12.40;76.90;;;;;;5058649;28;20029;-81
2023/10/23 06:47:37;;;;;;;3.25;1.85;;;12.50;77.10;;;;;;5063904;28;20106;-80
2023/10/23 06:50:04;;;;;;;6.65;2.10;;;12.50;77.10;;;;;;5055723;28;20026;-81
2023/10/23 06:52:31;;;;;;;5.95;2.10;;;12.50;77.10;;;;;;5053685;28;20067;-83
2023/10/23 06:54:57;;;;;;;3.08;1.55;;;12.50;77.10;;;;;;5060999;28;20158;-82
2023/10/23 06:57:23;;;;;;;5.47;1.90;;;12.60;77.20;;;;;;5057108;28;20124;-80
2023/10/23 06:59:50;;;;;;;7.68;2.45;;;12.60;77.20;;;;;;5058093;28;20037;-81
2023/10/23 07:02:16;;;;;;;9.93;2.13;;;12.70;77.40;;;;;;5056223;28;20082;-81
2023/10/23 07:04:42;;;;;;;3.90;1.63;;;12.70;77.40;;;;;;5056758;28;20048;-81
2023/10/23 07:07:08;;;;;;;9.80;1.92;;;12.70;77.40;;;;;;5057370;28;20116;-82
2023/10/23 07:09:34;;;;;;;7.25;3.53;;;12.70;77.30;;;;;;5061264;28;20104;-81
2023/10/23 07:12:01;;;;;;;6.50;1.60;;;12.70;77.20;;;;;;5057701;28;20616;-81
2023/10/23 07:14:27;;;;;;;4.30;1.45;;;12.70;77.10;;;;;;5065592;28;20048;-82
2023/10/23 07:16:53;;;;;;;8.60;1.75;;;12.80;77.20;;;;;;5066043;28;20522;-82
2023/10/23 07:19:20;;;;;;;4.93;2.03;;;12.80;77.10;;;;;;5063607;28;20029;-82
2023/10/23 07:21:52;;;;;;;4.13;1.70;;;12.80;77.10;;;;;;5062334;28;20410;-81
2023/10/23 07:24:19;;;;;;;6.95;2.03;;;12.80;77.00;;;;;;5060216;28;20110;-81
2023/10/23 07:26:45;;;;;;;4.65;1.85;;;12.70;76.70;;;;;;5039870;28;20080;-82
2023/10/23 07:29:11;;;;;;;5.35;1.85;;;12.80;76.90;;;;;;5060935;28;20420;-81
2023/10/23 07:31:38;;;;;;;4.40;1.63;;;12.70;76.70;;;;;;5056690;28;20052;-81
2023/10/23 07:34:04;;;;;;;3.03;1.20;;;12.80;76.90;;;;;;5052047;28;20079;-82
2023/10/23 07:36:31;;;;;;;3.95;1.60;;;12.70;77.20;;;;;;5054188;28;20480;-81
2023/10/23 07:38:57;;;;;;;5.68;1.85;;;12.80;76.70;;;;;;5074399;28;20495;-82
2023/10/23 07:41:23;;;;;;;5.18;2.08;;;12.80;76.60;;;;;;5039367;28;20051;-82
2023/10/23 07:43:49;;;;;;;6.47;1.83;;;12.80;76.60;;;;;;5054895;28;20115;-82
2023/10/23 07:46:15;;;;;;;3.83;1.20;;;12.80;76.60;;;;;;5055797;28;20036;-81
2023/10/23 07:48:41;;;;;;;4.43;1.27;;;12.80;76.50;;;;;;5074493;28;20044;-82
2023/10/23 07:51:07;;;;;;;3.67;1.67;;;12.90;76.60;;;;;;5052089;28;20392;-82
2023/10/23 07:53:35;;;;;;;3.28;2.22;;;12.90;76.50;;;;;;5056472;28;20638;-82
2023/10/23 07:56:04;;;;;;;10.10;1.80;;;12.90;76.50;;;;;;5053555;28;20146;-83
2023/10/23 07:58:31;;;;;;;4.18;1.55;;;12.90;76.40;;;;;;5039492;28;20592;-83
2023/10/23 08:01:08;;;;;;;2.25;1.20;;;13.00;76.50;;;;;;5051097;28;20040;-82
2023/10/23 08:03:38;;;;;;;4.20;1.10;;;13.00;76.50;;;;;;5034865;28;20302;-82
2023/10/23 08:06:06;;;;;;;7.80;1.60;;;13.10;76.50;;;;;;5055925;28;20036;-82
2023/10/23 08:08:36;;;;;;;6.80;1.92;;;13.10;76.50;;;;;;5055291;28;20047;-82
2023/10/23 08:11:04;;;;;;;7.32;1.83;;;13.10;76.40;;;;;;5052947;28;20036;-81
2023/10/23 08:13:31;;;;;;;5.00;1.70;;;13.10;76.30;;;;;;5054954;28;20060;-84
2023/10/23 08:16:00;;;;;;;4.82;1.38;;;13.20;76.40;;;;;;5073475;28;20499;-82
2023/10/23 08:18:26;;;;;;;3.97;1.45;;;13.20;76.40;;;;;;5056087;28;20147;-82
2023/10/23 08:20:55;;;;;;;5.68;1.60;;;13.30;76.90;;;;;;5054122;28;20039;-81
2023/10/23 08:23:22;;;;;;;5.07;1.40;;;13.30;76.40;;;;;;5053771;28;20044;-81
2023/10/23 08:25:48;;;;;;;5.78;1.67;;;13.40;76.50;;;;;;5053989;28;20033;-82
2023/10/23 08:28:18;;;;;;;7.65;2.10;;;13.40;76.40;;;;;;5056224;28;20028;-83
2023/10/23 08:30:44;;;;;;;4.78;1.55;;;13.50;76.50;;;;;;5043627;28;20099;-83
2023/10/23 08:33:11;;;;;;;7.07;1.65;;;13.50;76.40;;;;;;5055411;28;20642;-82
2023/10/23 08:35:37;;;;;;;5.97;2.15;;;13.60;76.40;;;;;;5050185;28;20498;-82
2023/10/23 08:38:03;;;;;;;8.45;2.10;;;13.70;76.60;;;;;;5055449;28;20131;-83
2023/10/23 08:40:33;;;;;;;2.22;1.35;;;13.70;76.50;;;;;;5051731;28;20039;-83
2023/10/23 08:42:59;;;;;;;5.28;1.60;;;13.80;76.50;;;;;;5063339;28;20052;-83
2023/10/23 08:45:26;;;;;;;6.45;2.20;;;13.90;76.60;;;;;;5043954;28;20544;-81
2023/10/23 08:47:51;;;;;;;3.92;1.33;;;13.90;76.50;;;;;;5057533;28;20588;-82
2023/10/23 08:50:18;;;;;;;7.00;2.20;;;14.00;76.60;;;;;;5051063;28;20360;-83
2023/10/23 08:52:49;;;;;;;2.75;1.58;;;14.00;76.50;;;;;;5054170;28;20391;-84
2023/10/23 08:55:17;;;;;;;5.57;1.80;;;14.10;76.60;;;;;;5056259;28;20035;-83
2023/10/23 08:57:54;;;;;;;3.63;1.90;;;14.20;76.60;;;;;;5059604;28;20562;-85
2023/10/23 09:00:24;;;;;;;8.90;1.95;;;14.20;76.40;;;;;;5056100;28;20342;-82
2023/10/23 09:02:51;;;;;;;6.05;1.95;;;14.30;76.50;;;;;;5058312;28;20365;-84
2023/10/23 09:05:19;;;;;;;5.95;1.75;;;14.40;76.60;;;;;;5056808;28;20029;-83
2023/10/23 09:07:48;;;;;;;6.53;1.60;;;14.40;76.40;;;;;;5056616;28;20568;-83
2023/10/23 09:10:14;;;;;;;5.35;1.88;;;14.50;76.50;;;;;;5058171;28;20036;-82
2023/10/23 09:12:41;;;;;;;4.70;1.85;;;14.50;76.40;;;;;;5043578;28;20537;-83
2023/10/23 09:15:20;;;;;;;3.13;1.50;;;14.60;76.40;;;;;;5059956;28;20422;-83
2023/10/23 09:17:51;;;;;;;6.32;1.73;;;14.60;76.40;;;;;;5054052;28;20434;-84
2023/10/23 09:20:24;;;;;;;4.60;1.67;;;14.70;76.40;;;;;;5066198;28;20031;-82
2023/10/23 09:22:52;;;;;;;5.53;1.88;;;14.70;76.40;;;;;;5058189;28;20131;-84
2023/10/23 09:25:25;;;;;;;6.13;1.90;;;14.80;76.50;;;;;;5056681;28;20024;-84
2023/10/23 09:27:52;;;;;;;4.97;1.83;;;14.80;76.40;;;;;;5056517;28;20483;-83
2023/10/23 09:30:22;;;;;;;4.22;1.50;;;14.90;76.50;;;;;;5048112;28;20032;-84
2023/10/23 09:32:53;;;;;;;3.10;1.75;;;14.90;76.40;;;;;;5059695;28;20305;-84
2023/10/23 09:35:20;;;;;;;7.65;1.65;;;15.00;76.40;;;;;;5057693;28;20159;-84
2023/10/23 09:37:46;;;;;;;4.57;1.40;;;15.10;76.40;;;;;;5052783;28;20040;-84
2023/10/23 09:40:20;;;;;;;6.20;2.65;;;15.20;76.50;;;;;;5055508;28;20060;-84
2023/10/23 09:42:46;;;;;;;6.90;1.80;;;15.30;76.50;;;;;;5057592;28;20446;-84
2023/10/23 09:45:15;;;;;;;9.73;2.42;;;15.30;76.30;;;;;;5063835;28;20029;-85
2023/10/23 09:47:41;;;;;;;7.55;2.00;;;15.40;76.30;;;;;;5043539;28;20028;-84
2023/10/23 09:50:09;;;;;;;4.55;1.55;;;15.50;76.30;;;;;;5069889;28;20020;-85
2023/10/23 09:52:40;;;;;;;9.15;2.30;;;15.60;76.30;;;;;;5058298;28;20024;-83
2023/10/23 09:55:07;;;;;;;5.55;1.55;;;15.60;76.20;;;;;;5058289;28;20036;-84
2023/10/23 09:57:37;;;;;;;7.68;1.73;;;15.70;76.20;;;;;;5056349;28;20094;-84
2023/10/23 10:00:14;;;;;;;4.72;1.52;;;15.80;76.20;;;;;;5059838;28;20071;-84
2023/10/23 10:02:56;;;;;;;4.93;1.42;;;15.80;76.00;;;;;;5059639;28;20083;-82
2023/10/23 10:05:39;;;;;;;5.90;1.92;;;15.90;76.10;;;;;;5060527;28;20041;-86
2023/10/23 10:08:13;;;;;;;9.50;1.75;;;15.90;75.90;;;;;;5058177;28;20058;-83
2023/10/23 10:10:41;;;;;;;2.97;1.23;;;16.00;76.10;;;;;;5055805;28;20033;-84
2023/10/23 10:13:13;;;;;;;4.60;1.55;;;16.00;76.00;;;;;;5062293;28;20036;-90
2023/10/23 10:15:40;;;;;;;7.57;1.50;;;16.10;76.00;;;;;;5055912;28;20111;-87
2023/10/23 10:18:07;;;;;;;6.75;1.58;;;16.20;76.20;;;;;;5064689;28;20024;-87
2023/10/23 10:20:34;;;;;;;4.18;1.20;;;16.30;76.40;;;;;;5061204;28;20028;-89
2023/10/23 10:23:12;;;;;;;5.68;1.08;;;16.30;76.20;;;;;;5059712;28;20151;-88
2023/10/23 10:25:40;;;;;;;3.05;1.38;;;16.50;76.40;;;;;;5058285;28;20068;-87
2023/10/23 10:28:08;;;;;;;3.58;1.50;;;16.60;76.40;;;;;;5061083;28;20303;-90
2023/10/23 10:30:49;;;;;;;4.57;1.30;;;16.70;76.40;;;;;;5061231;28;20024;-89
2023/10/23 10:33:30;;;;;;;6.85;1.92;;;16.70;76.10;;;;;;5071643;28;20036;-90
2023/10/23 10:36:05;;;;;;;5.97;1.33;;;16.90;76.30;;;;;;5062033;28;20198;-91
2023/10/23 10:38:34;;;;;;;5.18;1.52;;;16.90;76.10;;;;;;5062475;28;20083;-88
2023/10/23 10:41:17;;;;;;;9.07;2.00;;;17.00;76.00;;;;;;5039809;28;20567;-90
2023/10/23 10:43:50;;;;;;;5.90;1.23;;;17.10;76.00;;;;;;5065995;28;20576;-89
2023/10/23 10:46:25;;;;;;;4.75;1.58;;;17.20;76.00;;;;;;5063992;28;20083;-89
2023/10/23 10:48:54;;;;;;;5.10;1.00;;;17.30;75.90;;;;;;5059367;28;20042;-87
2023/10/23 10:51:23;;;;;;;3.30;1.33;;;17.30;75.70;;;;;;5058905;28;20505;-90
2023/10/23 10:54:06;;;;;;;6.13;1.88;;;17.40;75.80;;;;;;5044513;28;20050;-90
2023/10/23 10:56:35;;;;;;;4.00;1.38;;;17.50;75.70;;;;;;5054833;28;20078;-86
2023/10/23 10:59:05;;;;;;;5.70;1.63;;;17.50;75.50;;;;;;5063963;28;20036;-87
2023/10/23 11:01:32;;;;;;;7.90;1.58;;;17.60;75.50;;;;;;5052569;28;20055;-86
2023/10/23 11:04:07;;;;;;;7.65;1.35;;;17.70;75.50;;;;;;5057466;28;20028;-86
2023/10/23 11:06:33;;;;;;;8.95;2.42;;;17.70;75.20;;;;;;5060418;28;20055;-87
2023/10/23 11:08:59;;;;;;;4.63;1.50;;;17.80;75.20;;;;;;5031287;28;20073;-87
2023/10/23 11:11:27;;;;;;;6.32;1.50;;;17.80;75.10;;;;;;5041948;28;20040;-86
2023/10/23 11:13:54;;;;;;;7.25;1.80;;;17.90;75.10;;;;;;5049212;28;20048;-86
2023/10/23 11:16:21;;;;;;;4.15;1.33;;;17.90;74.90;;;;;;5041704;28;20043;-88
2023/10/23 11:18:51;;;;;;;3.08;1.20;;;18.00;74.90;;;;;;5058387;28;20032;-88
2023/10/23 11:21:22;;;;;;;6.78;1.55;;;18.00;74.70;;;;;;5065459;28;20045;-87
2023/10/23 11:23:48;;;;;;;3.42;1.50;;;18.10;74.70;;;;;;5056717;28;20043;-87
2023/10/23 11:26:15;;;;;;;5.03;1.25;;;18.10;74.50;;;;;;5060099;28;20036;-85
2023/10/23 11:28:44;;;;;;;4.57;1.58;;;18.20;74.50;;;;;;5058738;28;20037;-87
2023/10/23 11:31:10;;;;;;;8.32;1.38;;;18.20;74.20;;;;;;5058613;28;20529;-88
2023/10/23 11:33:36;;;;;;;5.63;1.73;;;18.30;74.20;;;;;;5060192;28;20090;-86
2023/10/23 11:36:05;;;;;;;6.03;2.08;;;18.40;74.20;;;;;;5040351;28;20543;-86
2023/10/23 11:38:36;;;;;;;6.13;1.70;;;18.40;73.90;;;;;;5055716;28;20516;-89
2023/10/23 11:41:03;;;;;;;3.47;1.20;;;18.50;73.90;;;;;;5047915;28;20048;-87
2023/10/23 11:43:29;;;;;;;4.25;1.30;;;18.60;73.90;;;;;;5059024;28;20036;-91
2023/10/23 11:45:55;;;;;;;5.82;1.92;;;18.70;73.80;;;;;;5062452;28;20037;-91
2023/10/23 11:48:24;;;;;;;3.72;1.45;;;18.70;73.60;;;;;;5058137;28;20074;-89
2023/10/23 11:50:52;;;;;;;5.72;2.03;;;18.80;73.50;;;;;;5058157;28;20044;-89
2023/10/23 11:53:22;;;;;;;4.40;1.17;;;18.90;73.50;;;;;;5061886;28;20530;-89
2023/10/23 11:55:49;;;;;;;4.97;1.35;;;18.90;73.30;;;;;;5043207;28;20119;-90
2023/10/23 11:58:26;;;;;;;4.90;1.73;;;19.00;73.20;;;;;;5044011;28;20127;-91
2023/10/23 12:00:52;;;;;;;5.50;1.05;;;19.10;73.00;;;;;;5060976;28;20027;-91
2023/10/23 12:03:21;;;;;;;2.15;1.05;;;19.20;73.00;;;;;;5068155;28;20311;-91
2023/10/23 12:05:48;;;;;;;7.97;1.40;;;19.30;72.90;;;;;;5047859;28;20055;-90
2023/10/23 12:08:14;;;;;;;6.57;1.75;;;19.40;72.80;;;;;;5056755;28;20025;-93
2023/10/23 12:10:40;;;;;;;4.00;1.20;;;19.50;72.70;;;;;;5059510;28;20039;-91
2023/10/23 12:13:10;;;;;;;4.85;1.27;;;19.60;72.60;;;;;;5042124;28;20067;-89
2023/10/23 12:15:36;;;;;;;8.75;2.65;;;19.70;72.50;;;;;;5061437;28;20055;-91
2023/10/23 12:18:05;;;;;;;4.72;1.30;;;19.70;72.30;;;;;;5060089;28;20029;-89
2023/10/23 12:20:32;;;;;;;7.00;1.42;;;19.80;72.20;;;;;;5043377;28;20571;-89
2023/10/23 12:22:58;;;;;;;3.00;1.30;;;19.90;72.10;;;;;;5044035;28;20041;-87
2023/10/23 12:25:24;;;;;;;5.03;1.02;;;20.00;72.00;;;;;;5063455;28;20036;-86
2023/10/23 12:27:51;;;;;;;4.47;1.05;;;20.00;71.80;;;;;;5041591;28;20047;-86
2023/10/23 12:30:17;;;;;;;4.88;1.38;;;20.10;71.70;;;;;;5048355;28;20028;-88
2023/10/23 12:32:43;;;;;;;4.38;1.38;;;20.10;71.40;;;;;;5064733;28;20067;-86
2023/10/23 12:35:15;;;;;;;4.38;1.13;;;20.20;71.30;;;;;;5055772;28;20244;-87
2023/10/23 12:37:41;;;;;;;4.18;1.30;;;20.30;71.30;;;;;;5077458;28;20040;-88
2023/10/23 12:40:09;;;;;;;2.95;1.10;;;20.30;71.10;;;;;;5058785;28;20048;-86
2023/10/23 12:42:35;;;;;;;4.70;2.30;;;20.30;70.80;;;;;;5054180;28;20070;-86
2023/10/23 12:45:02;;;;;;;4.82;0.93;;;20.40;70.80;;;;;;5060169;28;20210;-87
2023/10/23 12:47:29;;;;;;;4.20;1.33;;;20.40;70.50;;;;;;5060895;28;20423;-86